ADDS METAR Data INFO
IDs: Format: Raw Decoded Include TAF

Data at: 0340 UTC 28 Jun 2017

KASH 280256Z AUTO 26003KT 10SM CLR 13/12 RMK AO2 SLPNO 6//// T01330122 $
KASH 280156Z AUTO 15003KT 10SM CLR 14/13 RMK AO2 SLPNO T01390128 $
KASH 280056Z 21004KT 10SM FEW110 14/12 A2991 RMK AO2 LTG DSNT NE-S TSB2357E41RAB08E23 SLP135 T01390122 $
KASH 280047Z 21004KT 10SM FEW100 14/12 A2991 RMK AO2 LTG DSNT NE-S TSB2357E41RAB08E23 $
KASH 280003Z 10SM VCTS SCT030 OVC100 18/16 RMK AO2 LTG DSNT ALQDS TSB2357 $
KASH 272356Z 00000KT 10SM CLR 18/16 A2991 RMK AO2 LTG DSNT ALQDS SLP137 60007 T01780161 10222 20178 53000
KASH 272256Z 13006KT 10SM BKN100 OVC120 19/16 A2990 RMK AO2 LTG DSNT N AND SE AND NW SLP134 T01940161
KASH 272156Z 18004KT 10SM FEW028 SCT070 BKN110 21/16 A2988 RMK AO2 LTG DSNT ALQDS RAE10 SLP129 P0000 T02060156
KASH 272056Z 12006KT 9SM RA FEW028 BKN075 OVC100 18/17 A2991 RMK AO2 LTG DSNT E-S RAE13B30 SLP137 P0001 60007 T01830172 57011
KASH 271956Z 13005KT 6SM -RA BR FEW023 BKN050 OVC090 18/17 A2992 RMK AO2 LTG DSNT ALQDS TSB25E56RAB30 SLP142 P0005 T01780167
KASH 271939Z VRB04KT 10SM -TSRA FEW038 SCT050 BKN070CB 19/15 A2994 RMK AO2 LTG DSNT ALQDS TSB25RAB30 PRESRR P0000
KASH 271931Z 14007G14KT 10SM VCTS -RA FEW040 SCT050 BKN075 20/15 A2992 RMK AO2 LTG DSNT ALQDS TSB25RAB30 P0000
KASH 271856Z 14007KT 10SM FEW028 BKN100 22/15 A2992 RMK AO2 LTG DSNT ALQDS RAE50 SLP142 P0001 T02170150
KASH 271756Z 15008KT 10SM -RA FEW060 BKN100 22/13 A2994 RMK AO2 LTG DSNT W RAB50 SLP147 P0000 60000 T02170133 10233 20150 56023
KASH 271656Z VRB06KT 10SM FEW070 BKN110 22/13 A2996 RMK AO2 SLP154 T02220133
KASH 271556Z 00000KT 10SM BKN085 OVC120 21/14 A2998 RMK AO2 SLP163 T02110139
KASH 271456Z 00000KT 10SM SCT080 19/15 A3001 RMK AO2 SLP170 T01940150 58001
KASH 271356Z 00000KT 10SM FEW080 BKN120 19/14 A3002 RMK AO2 SLP175 T01940144
KASH 271256Z 00000KT 10SM BKN085 OVC100 17/14 A3002 RMK AO2 SLP175 T01670144
KASH 271156Z VRB05KT 10SM BKN120 15/14 A3001 RMK AO2 SLP172 7//// T01500139 10150 20128 53001
KASH 271056Z 00000KT 10SM SCT120 14/13 A3000 RMK AO2 SLP168 T01390133
KASH 270956Z AUTO 00000KT 10SM BKN110 13/13 A3000 RMK AO2 SLP169 T01330128
KASH 270856Z AUTO 00000KT 10SM CLR 13/13 A3000 RMK AO2 SLP170 T01280128 51005
KASH 270756Z AUTO 00000KT 10SM CLR 13/13 A3000 RMK AO2 SLP169 T01280128
KASH 270656Z AUTO 00000KT 10SM FEW060 13/13 A3000 RMK AO2 SLP167 T01330133
KASH 270556Z AUTO 17003KT 10SM BKN060 14/14 A2999 RMK AO2 SLP164 60006 T01440139 10178 20144 57004
KASH 270456Z AUTO 00000KT 10SM BKN060 OVC080 14/14 A3000 RMK AO2 SLP168 T01440139
KASH 270356Z AUTO 00000KT 10SM CLR 14/14 A2999 RMK AO2 RAE07 SLP165 P0001 T01440144 402440133
KASH 270256Z AUTO 00000KT 10SM -RA FEW023 SCT055 OVC070 16/14 A3000 RMK AO2 RAE11B32 SLP168 P0004 60005 T01560144 53007
KASH 270156Z AUTO 34004KT 10SM -RA FEW055 BKN070 BKN090 16/15 A3000 RMK AO2 RAB54 SLP167 P0000 T01610150
KASH 270056Z 00000KT 10SM OVC100 16/16 A2998 RMK AO2 RAE48 SLP160 P0001 T01560156
KASH 262356Z 27003KT 10SM -RA BKN060 BKN090 17/17 A2998 RMK AO2 SLP162 6//// T01720167 10244 20167 53015
KASH 262256Z 32005KT 10SM RA SCT070 BKN090 22/13 A2997 RMK AO2 RAB53 PRESRR SLP156 P0000 T02220128
KASH 262156Z 30005KT 10SM SCT070 BKN095 23/12 A2995 RMK AO2 SLP149 T02330117
KASH 262056Z VRB03KT 10SM SCT070 BKN085 24/11 A2994 RMK AO2 SLP147 T02390111 56008
KASH 261956Z 32004KT 10SM SCT065 BKN100 24/11 A2994 RMK AO2 SLP149 T02390106
KASH 261856Z 30004KT 10SM SCT065 BKN100 23/10 A2995 RMK AO2 SLP152 T02330100
KASH 261756Z 23004KT 10SM BKN065 BKN080 22/11 A2996 RMK AO2 SLP155 T02170111 10239 20178 58006
KASH 261656Z COR 30008G15KT 10SM SCT070 BKN085 23/09 A2997 RMK AO2 SLP157 T02330089
KASH 261556Z 28006KT 10SM BKN055 23/09 A2998 RMK AO2 SLP160 T02280094


Page loaded:  03:40 UTC  |   08:40 PM Pacific  |   09:40 PM Mountain  |   10:40 PM Central  |   11:40 PM Eastern

 

ADVISORIES

FORECASTS

FORECASTS

OBSERVATIONS

USER TOOLS

ABOUT US